Time;durP1;ratioP1;P1;durP2;ratioP2;P2;SDS_P1;SDS_P2;PMS_P1;PMS_P2;Temp;Humidity;BMP_temperature;BMP_pressure;BME280_temperature;BME280_humidity;BME280_pressure;Samples;Min_cycle;Max_cycle;Signal;HPM_P1;HPM_P2
2023/07/29 00:00:17;;;;;;;;;;;;;;;21.76;46.98;94499.31;5220204;22;19941;-82
2023/07/29 00:02:18;;;;;;;;;;;;;;;21.74;46.92;94500.63;5164000;23;19966;-81
2023/07/29 00:04:20;;;;;;;;;;;;;;;21.64;46.87;94502.03;5190134;22;19925;-83
2023/07/29 00:06:22;;;;;;;;;;;;;;;21.57;47.02;94495.97;5192526;22;19915;-81
2023/07/29 00:08:23;;;;;;;;;;;;;;;21.46;47.31;94499.47;5195091;22;20074;-82
2023/07/29 00:10:25;;;;;;;;;;;;;;;21.34;47.43;94504.75;5174244;22;19916;-81
2023/07/29 00:12:27;;;;;;;;;;;;;;;21.17;47.28;94504.63;5230696;22;19972;-79
2023/07/29 00:14:29;;;;;;;;;;;;;;;20.98;47.51;94505.75;5208599;22;19915;-79
2023/07/29 00:16:30;;;;;;;;;;;;;;;20.71;48.56;94507.97;5204712;22;19961;-80
2023/07/29 00:18:32;;;;;;;;;;;;;;;20.64;48.88;94502.75;5236271;22;19915;-82
2023/07/29 00:20:34;;;;;;;;;;;;;;;20.61;48.96;94495.22;5236914;22;19903;-78
2023/07/29 00:22:36;;;;;;;;;;;;;;;20.58;48.88;94493.81;5234328;22;19922;-81
2023/07/29 00:24:39;;;;;;;;;;;;;;;20.63;48.76;94491.31;5209969;22;20321;-77
2023/07/29 00:26:40;;;;;;;;;;;;;;;20.70;48.96;94496.53;5211055;22;20013;-80
2023/07/29 00:28:42;;;;;;;;;;;;;;;20.80;48.55;94487.97;5237394;22;19915;-80
2023/07/29 00:30:44;;;;;;;;;;;;;;;20.90;48.22;94485.56;5209225;22;19915;-80
2023/07/29 00:32:45;;;;;;;;;;;;;;;21.00;47.81;94488.50;5234706;22;19906;-81
2023/07/29 00:34:47;;;;;;;;;;;;;;;21.09;47.60;94488.97;5209559;22;19933;-81
2023/07/29 00:36:49;;;;;;;;;;;;;;;21.19;47.56;94491.88;5236872;22;19919;-79
2023/07/29 00:38:52;;;;;;;;;;;;;;;21.27;46.97;94490.72;5236425;22;19915;-81
2023/07/29 00:40:55;;;;;;;;;;;;;;;21.32;47.00;94488.19;5206880;22;19930;-80
2023/07/29 00:42:58;;;;;;;;;;;;;;;21.35;47.11;94492.25;5195523;22;19919;-82
2023/07/29 00:44:59;;;;;;;;;;;;;;;21.23;47.18;94490.38;5218020;22;19938;-82
2023/07/29 00:47:02;;;;;;;;;;;;;;;20.97;47.83;94483.63;5217235;22;19986;-80
2023/07/29 00:49:04;;;;;;;;;;;;;;;20.89;48.05;94483.13;5216882;22;19921;-80
2023/07/29 00:51:06;;;;;;;;;;;;;;;20.85;48.10;94480.94;5218082;22;19915;-82
2023/07/29 00:53:10;;;;;;;;;;;;;;;20.92;47.98;94480.03;5218487;22;19930;-81
2023/07/29 00:55:12;;;;;;;;;;;;;;;20.99;47.61;94480.72;5189728;22;19963;-81
2023/07/29 00:57:14;;;;;;;;;;;;;;;21.02;47.97;94483.75;5189200;22;19943;-82
2023/07/29 00:59:15;;;;;;;;;;;;;;;20.89;48.23;94480.47;5216503;22;19914;-84
2023/07/29 01:01:17;;;;;;;;;;;;;;;20.79;48.31;94478.38;5216328;22;19965;-82
2023/07/29 01:03:21;;;;;;;;;;;;;;;20.75;48.91;94483.34;5215804;22;19954;-79
2023/07/29 01:05:23;;;;;;;;;;;;;;;20.66;49.14;94479.38;5165490;22;19966;-81
2023/07/29 01:07:36;;;;;;;;;;;;;;;20.64;48.77;94476.94;5192027;22;19923;-80
2023/07/29 01:09:41;;;;;;;;;;;;;;;20.59;48.96;94484.81;5165949;23;19994;-81
2023/07/29 01:11:50;;;;;;;;;;;;;;;20.54;49.01;94481.16;5189243;22;19927;-81
2023/07/29 01:13:58;;;;;;;;;;;;;;;20.38;49.36;94480.75;5215481;22;20345;-82
2023/07/29 01:16:05;;;;;;;;;;;;;;;20.23;49.67;94475.03;5187492;22;19919;-81
2023/07/29 01:18:11;;;;;;;;;;;;;;;20.21;49.75;94477.09;5186582;22;19949;-81
2023/07/29 01:20:17;;;;;;;;;;;;;;;20.13;50.20;94480.06;5214941;22;20007;-83
2023/07/29 01:22:19;;;;;;;;;;;;;;;19.98;50.73;94483.94;5216401;22;19967;-81
2023/07/29 01:24:22;;;;;;;;;;;;;;;19.72;51.39;94485.00;5164723;22;19919;-82
2023/07/29 01:26:23;;;;;;;;;;;;;;;19.53;51.68;94481.53;5190503;22;19930;-82
2023/07/29 01:28:25;;;;;;;;;;;;;;;19.23;52.80;94487.50;5224106;22;19926;-83
2023/07/29 01:30:29;;;;;;;;;;;;;;;19.17;53.08;94477.75;5192078;22;20354;-82
2023/07/29 01:32:53;;;;;;;;;;;;;;;19.35;52.67;94482.28;5189061;22;19919;-81
2023/07/29 01:35:16;;;;;;;;;;;;;;;19.52;52.06;94482.53;5217263;22;19923;-81
2023/07/29 01:37:27;;;;;;;;;;;;;;;19.73;51.99;94483.19;5224983;22;19934;-81
2023/07/29 01:39:29;;;;;;;;;;;;;;;19.90;51.43;94486.88;5163682;22;19998;-82
2023/07/29 01:41:31;;;;;;;;;;;;;;;19.99;50.89;94484.72;5188138;22;19915;-81
2023/07/29 01:43:32;;;;;;;;;;;;;;;20.06;50.80;94474.81;5214834;22;19915;-80
2023/07/29 01:45:37;;;;;;;;;;;;;;;20.16;50.51;94471.66;5186553;22;19999;-81
2023/07/29 01:47:41;;;;;;;;;;;;;;;20.24;50.19;94477.47;5188140;22;19976;-85
2023/07/29 01:49:43;;;;;;;;;;;;;;;20.33;50.11;94477.16;5187356;22;19922;-81
2023/07/29 01:51:44;;;;;;;;;;;;;;;20.43;49.69;94482.72;5186555;22;20472;-82
2023/07/29 01:53:46;;;;;;;;;;;;;;;20.51;49.56;94481.63;5215021;22;19919;-82
2023/07/29 01:55:50;;;;;;;;;;;;;;;20.55;49.47;94474.81;5187016;22;19947;-82
2023/07/29 01:57:53;;;;;;;;;;;;;;;20.58;49.24;94477.03;5215625;22;19918;-82
2023/07/29 01:59:54;;;;;;;;;;;;;;;20.60;49.23;94482.94;5188079;22;19994;-81
2023/07/29 02:01:56;;;;;;;;;;;;;;;20.61;49.39;94481.94;5187786;22;19918;-80
2023/07/29 02:03:58;;;;;;;;;;;;;;;20.60;49.48;94475.78;5187137;22;19925;-82
2023/07/29 02:05:59;;;;;;;;;;;;;;;20.62;49.37;94478.22;5188388;22;19990;-83
2023/07/29 02:08:01;;;;;;;;;;;;;;;20.60;49.34;94480.28;5215646;22;19996;-81
2023/07/29 02:10:04;;;;;;;;;;;;;;;20.58;49.37;94477.84;5217238;22;19918;-84
2023/07/29 02:12:07;;;;;;;;;;;;;;;20.58;49.17;94475.19;5217183;22;19993;-80
2023/07/29 02:14:08;;;;;;;;;;;;;;;20.57;49.44;94478.91;5216794;22;20327;-81
2023/07/29 02:16:10;;;;;;;;;;;;;;;20.54;49.60;94478.50;5188804;22;19923;-82
2023/07/29 02:18:12;;;;;;;;;;;;;;;20.49;49.65;94483.69;5216344;22;20009;-82
2023/07/29 02:20:13;;;;;;;;;;;;;;;20.49;49.45;94487.16;5216060;22;19937;-80
2023/07/29 02:22:16;;;;;;;;;;;;;;;20.49;49.50;94484.50;5189701;22;19915;-82
2023/07/29 02:24:17;;;;;;;;;;;;;;;20.52;49.50;94489.38;5220185;22;19938;-82
2023/07/29 02:26:19;;;;;;;;;;;;;;;20.53;49.46;94484.88;5218082;22;19914;-85
2023/07/29 02:28:22;;;;;;;;;;;;;;;20.53;49.57;94487.53;5215558;22;19958;-82
2023/07/29 02:30:23;;;;;;;;;;;;;;;20.52;49.60;94486.72;5214636;22;19919;-82
2023/07/29 02:32:25;;;;;;;;;;;;;;;20.52;49.71;94493.88;5216615;22;19923;-81
2023/07/29 02:34:27;;;;;;;;;;;;;;;20.51;49.70;94484.28;5215559;22;19984;-81
2023/07/29 02:36:29;;;;;;;;;;;;;;;20.48;49.91;94492.69;5189531;22;19919;-80
2023/07/29 02:38:30;;;;;;;;;;;;;;;20.45;50.09;94488.66;5214699;22;20001;-82
2023/07/29 02:40:32;;;;;;;;;;;;;;;20.47;49.90;94486.56;5187141;22;20034;-81
2023/07/29 02:42:34;;;;;;;;;;;;;;;20.47;50.23;94486.56;5214696;22;19950;-81
2023/07/29 02:44:35;;;;;;;;;;;;;;;20.49;50.20;94481.03;5186688;22;19986;-80
2023/07/29 02:46:37;;;;;;;;;;;;;;;20.45;50.30;94483.31;5213841;22;19922;-82
2023/07/29 02:48:40;;;;;;;;;;;;;;;20.42;50.48;94481.94;5186655;22;19915;-81
2023/07/29 02:50:41;;;;;;;;;;;;;;;20.36;50.57;94490.81;5187658;22;19919;-82
2023/07/29 02:52:43;;;;;;;;;;;;;;;20.23;50.72;94493.63;5186557;22;19919;-81
2023/07/29 02:54:45;;;;;;;;;;;;;;;20.15;50.96;94493.94;5215332;22;19985;-82
2023/07/29 02:56:46;;;;;;;;;;;;;;;19.98;51.39;94489.25;5215397;22;19922;-83
2023/07/29 02:58:48;;;;;;;;;;;;;;;19.95;51.59;94494.19;5218063;22;19915;-83
2023/07/29 03:00:52;;;;;;;;;;;;;;;19.95;51.66;94497.66;5190004;22;19915;-81
2023/07/29 03:02:55;;;;;;;;;;;;;;;19.90;51.65;94500.16;5218534;22;19915;-82
2023/07/29 03:04:56;;;;;;;;;;;;;;;19.80;52.08;94494.56;5216909;22;20299;-81
2023/07/29 03:07:01;;;;;;;;;;;;;;;19.70;52.35;94500.38;5165554;22;19919;-82
2023/07/29 03:09:02;;;;;;;;;;;;;;;19.42;53.03;94506.13;5222849;22;19915;-83
2023/07/29 03:11:08;;;;;;;;;;;;;;;18.93;54.59;94508.59;5200399;22;20012;-82
2023/07/29 03:13:10;;;;;;;;;;;;;;;18.37;56.45;94518.06;5198840;22;19923;-83
2023/07/29 03:15:13;;;;;;;;;;;;;;;18.34;56.85;94515.81;5230396;22;19915;-81
2023/07/29 03:17:15;;;;;;;;;;;;;;;18.29;56.91;94515.66;5188668;22;19915;-80
2023/07/29 03:19:17;;;;;;;;;;;;;;;18.38;56.71;94505.63;5215385;22;19919;-83
2023/07/29 03:21:18;;;;;;;;;;;;;;;18.51;56.48;94507.38;5188391;22;19926;-82
2023/07/29 03:23:20;;;;;;;;;;;;;;;18.56;56.27;94511.03;5188758;22;19949;-80
2023/07/29 03:25:22;;;;;;;;;;;;;;;18.65;55.98;94513.41;5188816;22;19926;-82
2023/07/29 03:27:25;;;;;;;;;;;;;;;18.78;55.76;94511.53;5215943;22;19920;-83
2023/07/29 03:29:27;;;;;;;;;;;;;;;18.94;55.06;94522.66;5215631;22;20307;-84
2023/07/29 03:31:28;;;;;;;;;;;;;;;18.98;55.03;94511.38;5216434;22;20275;-81
2023/07/29 03:33:30;;;;;;;;;;;;;;;19.09;55.02;94512.53;5189778;22;19968;-82
2023/07/29 03:35:32;;;;;;;;;;;;;;;19.12;54.76;94516.59;5190334;22;20281;-83
2023/07/29 03:37:34;;;;;;;;;;;;;;;19.10;54.86;94513.34;5218545;22;20026;-81
2023/07/29 03:39:35;;;;;;;;;;;;;;;19.08;54.98;94508.28;5219892;22;19947;-83
2023/07/29 03:41:38;;;;;;;;;;;;;;;19.10;55.03;94510.69;5220381;22;19982;-82
2023/07/29 03:43:40;;;;;;;;;;;;;;;19.05;55.08;94507.88;5191634;22;20544;-83
2023/07/29 03:45:42;;;;;;;;;;;;;;;19.02;55.35;94509.13;5215434;22;19915;-82
2023/07/29 03:47:43;;;;;;;;;;;;;;;19.05;55.58;94508.69;5219242;22;19915;-80
2023/07/29 03:49:45;;;;;;;;;;;;;;;19.12;55.26;94511.28;5223074;22;19985;-81
2023/07/29 03:51:47;;;;;;;;;;;;;;;19.22;55.27;94508.97;5220762;22;19934;-81
2023/07/29 03:53:48;;;;;;;;;;;;;;;19.26;55.14;94506.69;5218018;22;20259;-82
2023/07/29 03:55:50;;;;;;;;;;;;;;;19.17;55.17;94506.16;5218083;22;20001;-83
2023/07/29 03:57:52;;;;;;;;;;;;;;;19.20;55.15;94511.81;5220299;22;19958;-81
2023/07/29 03:59:54;;;;;;;;;;;;;;;19.20;55.03;94506.53;5193990;22;19915;-82
2023/07/29 04:01:56;;;;;;;;;;;;;;;19.22;55.02;94504.47;5218995;22;19914;-83
2023/07/29 04:03:58;;;;;;;;;;;;;;;19.32;55.22;94505.84;5220717;22;19919;-80
2023/07/29 04:06:01;;;;;;;;;;;;;;;19.46;54.87;94509.97;5221484;22;19968;-83
2023/07/29 04:08:03;;;;;;;;;;;;;;;19.56;54.58;94515.59;5219619;22;19979;-82
2023/07/29 04:10:05;;;;;;;;;;;;;;;19.68;54.17;94522.84;5223736;22;19930;-82
2023/07/29 04:12:08;;;;;;;;;;;;;;;19.76;53.74;94530.56;5222521;22;19919;-83
2023/07/29 04:14:09;;;;;;;;;;;;;;;19.59;54.27;94520.47;5223160;22;19915;-82
2023/07/29 04:16:11;;;;;;;;;;;;;;;19.40;54.68;94521.47;5193400;22;19923;-82
2023/07/29 04:18:13;;;;;;;;;;;;;;;19.32;54.59;94519.91;5194266;22;19963;-81
2023/07/29 04:20:15;;;;;;;;;;;;;;;19.39;54.49;94511.88;5197525;22;20023;-81
2023/07/29 04:22:16;;;;;;;;;;;;;;;19.50;54.28;94513.81;5226903;22;20013;-84
2023/07/29 04:24:20;;;;;;;;;;;;;;;19.68;54.09;94513.06;5191795;22;19993;-84
2023/07/29 04:26:22;;;;;;;;;;;;;;;19.73;54.02;94513.22;5218140;22;19957;-85
2023/07/29 04:28:25;;;;;;;;;;;;;;;19.77;53.88;94513.59;5218559;22;19979;-85
2023/07/29 04:30:27;;;;;;;;;;;;;;;19.85;53.75;94518.59;5221469;22;19972;-81
2023/07/29 04:32:28;;;;;;;;;;;;;;;19.93;53.35;94520.97;5190975;22;19920;-82
2023/07/29 04:34:30;;;;;;;;;;;;;;;20.05;53.14;94524.53;5217216;22;19972;-82
2023/07/29 04:36:32;;;;;;;;;;;;;;;20.17;52.97;94523.78;5192524;22;19964;-83
2023/07/29 04:38:34;;;;;;;;;;;;;;;20.21;53.13;94522.31;5172222;22;19919;-83
2023/07/29 04:40:36;;;;;;;;;;;;;;;20.17;53.36;94529.09;5201643;22;19922;-82
2023/07/29 04:42:37;;;;;;;;;;;;;;;20.25;53.40;94526.16;5216699;22;19947;-82
2023/07/29 04:44:41;;;;;;;;;;;;;;;20.30;53.01;94514.84;5217208;22;19984;-81
2023/07/29 04:46:43;;;;;;;;;;;;;;;20.34;53.02;94519.47;5215181;22;19930;-81
2023/07/29 04:48:45;;;;;;;;;;;;;;;20.44;52.52;94518.97;5188510;22;19919;-82
2023/07/29 04:50:46;;;;;;;;;;;;;;;20.48;52.77;94520.13;5216884;22;19915;-84
2023/07/29 04:52:48;;;;;;;;;;;;;;;20.51;52.63;94524.19;5217785;22;19918;-83
2023/07/29 04:54:50;;;;;;;;;;;;;;;20.59;52.43;94527.38;5217964;22;19982;-82
2023/07/29 04:56:52;;;;;;;;;;;;;;;20.59;52.73;94531.91;5166400;22;19930;-84
2023/07/29 04:58:55;;;;;;;;;;;;;;;20.59;52.63;94530.03;5190720;22;19977;-83
2023/07/29 05:00:57;;;;;;;;;;;;;;;20.64;52.61;94532.84;5189182;22;20034;-82
2023/07/29 05:02:58;;;;;;;;;;;;;;;20.69;52.46;94537.47;5216402;22;19981;-83
2023/07/29 05:05:01;;;;;;;;;;;;;;;20.78;52.29;94540.63;5215527;22;19919;-83
2023/07/29 05:07:03;;;;;;;;;;;;;;;20.86;51.58;94541.16;5164666;22;20060;-84
2023/07/29 05:09:18;;;;;;;;;;;;;;;20.76;51.78;94542.72;5217220;22;19943;-84
2023/07/29 05:11:19;;;;;;;;;;;;;;;20.78;51.66;94546.78;5164246;23;19990;-82
2023/07/29 05:13:21;;;;;;;;;;;;;;;20.91;51.61;94545.78;5217522;22;20269;-81
2023/07/29 05:15:24;;;;;;;;;;;;;;;21.08;51.06;94545.97;5189974;22;19923;-82
2023/07/29 05:17:25;;;;;;;;;;;;;;;21.18;50.59;94554.19;5189063;22;20384;-84
2023/07/29 05:19:28;;;;;;;;;;;;;;;21.30;50.23;94553.41;5190085;22;20238;-82
2023/07/29 05:21:30;;;;;;;;;;;;;;;21.30;50.40;94556.09;5190899;22;20411;-83
2023/07/29 05:23:32;;;;;;;;;;;;;;;21.13;50.75;94548.75;5165630;22;20353;-83
2023/07/29 05:25:36;;;;;;;;;;;;;;;21.02;50.81;94544.19;5216646;22;19919;-82
2023/07/29 05:27:38;;;;;;;;;;;;;;;20.76;51.64;94554.19;5190611;22;20306;-83
2023/07/29 05:29:40;;;;;;;;;;;;;;;20.58;52.13;94547.03;5217840;22;19950;-82
2023/07/29 05:31:41;;;;;;;;;;;;;;;20.72;51.87;94552.22;5216150;22;19946;-83
2023/07/29 05:33:43;;;;;;;;;;;;;;;20.91;51.11;94555.59;5189642;22;19994;-84
2023/07/29 05:35:47;;;;;;;;;;;;;;;21.10;50.57;94548.38;5190314;22;19915;-82
2023/07/29 05:37:48;;;;;;;;;;;;;;;21.29;50.05;94552.59;5217666;22;19926;-82
2023/07/29 05:39:50;;;;;;;;;;;;;;;21.44;49.95;94549.50;5164212;23;19947;-83
2023/07/29 05:41:52;;;;;;;;;;;;;;;21.25;50.27;94554.06;5188492;22;19994;-84
2023/07/29 05:43:56;;;;;;;;;;;;;;;21.06;50.73;94562.16;5216894;22;19925;-82
2023/07/29 05:45:58;;;;;;;;;;;;;;;21.07;50.89;94560.31;5189267;22;20287;-84
2023/07/29 05:47:59;;;;;;;;;;;;;;;21.21;50.51;94553.75;5216177;22;19946;-81
2023/07/29 05:50:04;;;;;;;;;;;;;;;21.23;50.86;94556.16;5217755;22;19919;-81
2023/07/29 05:52:06;;;;;;;;;;;;;;;21.42;50.34;94564.91;5217328;22;19950;-82
2023/07/29 05:54:07;;;;;;;;;;;;;;;21.53;50.16;94561.47;5190324;22;19942;-83
2023/07/29 05:56:10;;;;;;;;;;;;;;;21.54;50.07;94552.41;5217614;22;19915;-83
2023/07/29 05:58:11;;;;;;;;;;;;;;;21.44;50.00;94552.16;5217168;22;20326;-82
2023/07/29 06:00:15;;;;;;;;;;;;;;;21.41;49.59;94555.28;5217794;22;20272;-83
2023/07/29 06:02:17;;;;;;;;;;;;;;;21.45;50.11;94561.81;5219662;22;20386;-81
2023/07/29 06:04:19;;;;;;;;;;;;;;;21.47;50.06;94559.72;5193807;22;20001;-86
2023/07/29 06:06:23;;;;;;;;;;;;;;;21.63;49.55;94564.34;5197226;22;19915;-82
2023/07/29 06:08:28;;;;;;;;;;;;;;;21.87;48.66;94559.03;5183629;22;19903;-83
2023/07/29 06:10:29;;;;;;;;;;;;;;;22.07;48.41;94548.81;5233330;22;19954;-81
2023/07/29 06:12:31;;;;;;;;;;;;;;;22.26;48.57;94560.19;5235616;22;19926;-83
2023/07/29 06:14:33;;;;;;;;;;;;;;;22.37;47.96;94560.38;5208315;22;19907;-82
2023/07/29 06:16:34;;;;;;;;;;;;;;;22.46;48.27;94551.78;5232411;22;19934;-82
2023/07/29 06:18:39;;;;;;;;;;;;;;;22.55;47.44;94554.88;5210191;22;19919;-80
2023/07/29 06:20:40;;;;;;;;;;;;;;;22.64;47.42;94553.47;5235902;22;19915;-81
2023/07/29 06:22:43;;;;;;;;;;;;;;;22.76;47.46;94549.94;5208811;22;19915;-81
2023/07/29 06:24:44;;;;;;;;;;;;;;;22.79;46.93;94555.63;5208874;22;19920;-82
2023/07/29 06:26:46;;;;;;;;;;;;;;;22.84;46.84;94545.03;5233314;22;19972;-81
2023/07/29 06:28:47;;;;;;;;;;;;;;;22.93;45.97;94547.31;5207488;22;19942;-82
2023/07/29 06:30:49;;;;;;;;;;;;;;;22.97;46.24;94546.56;5205809;22;19919;-81
2023/07/29 06:32:51;;;;;;;;;;;;;;;22.87;46.20;94538.41;5181586;23;19903;-84
2023/07/29 06:34:54;;;;;;;;;;;;;;;22.77;46.82;94536.34;5204839;22;19930;-82
2023/07/29 06:36:56;;;;;;;;;;;;;;;22.68;47.10;94543.13;5193646;22;20262;-85
2023/07/29 06:38:58;;;;;;;;;;;;;;;22.74;46.40;94542.19;5218578;22;19998;-82
2023/07/29 06:40:59;;;;;;;;;;;;;;;22.95;46.14;94529.19;5190933;22;19922;-81
2023/07/29 06:43:01;;;;;;;;;;;;;;;22.99;45.86;94533.78;5167273;22;19998;-84
2023/07/29 06:45:04;;;;;;;;;;;;;;;23.01;45.57;94530.91;5219084;22;19986;-83
2023/07/29 06:47:05;;;;;;;;;;;;;;;22.89;45.54;94522.94;5217274;22;19936;-85
2023/07/29 06:49:07;;;;;;;;;;;;;;;23.02;45.45;94532.56;5192497;22;19925;-83
2023/07/29 06:51:12;;;;;;;;;;;;;;;23.12;45.87;94532.72;5190806;22;19929;-82
2023/07/29 06:53:13;;;;;;;;;;;;;;;23.20;45.35;94524.31;5216474;22;19926;-81
2023/07/29 06:55:15;;;;;;;;;;;;;;;23.39;45.30;94532.91;5216758;22;19946;-84
2023/07/29 06:57:17;;;;;;;;;;;;;;;23.30;44.75;94535.16;5218372;22;19915;-83
2023/07/29 06:59:18;;;;;;;;;;;;;;;23.31;44.94;94530.63;5190688;22;19947;-86
2023/07/29 07:01:20;;;;;;;;;;;;;;;23.36;45.25;94524.56;5189656;22;19925;-83
2023/07/29 07:03:22;;;;;;;;;;;;;;;23.42;45.00;94536.94;5217690;22;20038;-84
2023/07/29 07:05:23;;;;;;;;;;;;;;;23.41;44.91;94530.00;5191717;22;19930;-87
2023/07/29 07:07:26;;;;;;;;;;;;;;;23.43;44.48;94535.91;5221359;22;20280;-84
2023/07/29 07:09:28;;;;;;;;;;;;;;;23.54;44.20;94536.88;5218349;22;20365;-83
2023/07/29 07:11:29;;;;;;;;;;;;;;;23.54;43.96;94536.88;5218622;22;19919;-85
2023/07/29 07:13:31;;;;;;;;;;;;;;;23.63;44.15;94533.53;5189227;22;19969;-83
2023/07/29 07:15:34;;;;;;;;;;;;;;;23.65;43.92;94527.94;5189451;22;19946;-83
2023/07/29 07:17:36;;;;;;;;;;;;;;;23.66;43.69;94527.72;5189481;22;19927;-83
2023/07/29 07:19:37;;;;;;;;;;;;;;;23.84;43.70;94528.53;5217485;22;19914;-83
2023/07/29 07:21:40;;;;;;;;;;;;;;;23.95;43.32;94527.63;5188708;22;19915;-85
2023/07/29 07:23:41;;;;;;;;;;;;;;;23.97;43.02;94530.06;5217132;22;19922;-83
2023/07/29 07:25:43;;;;;;;;;;;;;;;24.03;42.91;94526.41;5216283;22;20285;-82
2023/07/29 07:27:45;;;;;;;;;;;;;;;24.03;43.17;94521.03;5189733;22;20286;-83
2023/07/29 07:29:47;;;;;;;;;;;;;;;24.19;43.02;94525.53;5191527;22;20001;-83
2023/07/29 07:31:52;;;;;;;;;;;;;;;24.43;42.97;94519.91;5189729;22;19915;-83
2023/07/29 07:33:58;;;;;;;;;;;;;;;24.66;42.48;94518.88;5193103;22;19915;-84
2023/07/29 07:35:59;;;;;;;;;;;;;;;24.83;42.11;94519.59;5219400;22;20297;-86
2023/07/29 07:38:03;;;;;;;;;;;;;;;24.93;41.96;94511.66;5220599;22;19971;-82
2023/07/29 07:40:05;;;;;;;;;;;;;;;25.01;42.25;94512.25;5193362;22;19953;-85
2023/07/29 07:42:07;;;;;;;;;;;;;;;24.96;41.45;94512.22;5219456;22;20403;-83
2023/07/29 07:44:09;;;;;;;;;;;;;;;24.89;41.83;94512.44;5196096;22;19973;-81
2023/07/29 07:46:13;;;;;;;;;;;;;;;24.78;42.17;94511.50;5222713;22;19968;-82
2023/07/29 07:48:16;;;;;;;;;;;;;;;24.60;42.03;94509.16;5220433;22;19915;-83
2023/07/29 07:50:18;;;;;;;;;;;;;;;24.62;42.41;94507.84;5218344;22;19926;-85
2023/07/29 07:52:20;;;;;;;;;;;;;;;24.81;41.76;94516.34;5191368;22;19919;-83
2023/07/29 07:54:22;;;;;;;;;;;;;;;24.87;41.67;94520.72;5167403;22;19926;-84
2023/07/29 07:56:23;;;;;;;;;;;;;;;24.77;41.20;94517.91;5192686;22;19939;-83
2023/07/29 07:58:25;;;;;;;;;;;;;;;24.90;41.28;94514.03;5193196;22;19955;-84
2023/07/29 08:00:26;;;;;;;;;;;;;;;25.05;41.15;94521.41;5193657;22;20253;-84
2023/07/29 08:02:28;;;;;;;;;;;;;;;25.07;40.86;94522.78;5221845;22;19914;-82
2023/07/29 08:04:30;;;;;;;;;;;;;;;25.07;41.02;94522.78;5219730;22;19926;-82
2023/07/29 08:06:32;;;;;;;;;;;;;;;25.07;40.76;94521.97;5192874;22;19986;-84
2023/07/29 08:08:34;;;;;;;;;;;;;;;25.25;40.91;94513.59;5194487;22;20279;-82
2023/07/29 08:10:36;;;;;;;;;;;;;;;25.49;40.26;94514.06;5223701;22;19926;-83
2023/07/29 08:12:38;;;;;;;;;;;;;;;25.71;39.81;94515.81;5223464;22;20019;-84
2023/07/29 08:14:40;;;;;;;;;;;;;;;25.76;39.14;94513.16;5219272;22;19964;-82
2023/07/29 08:16:42;;;;;;;;;;;;;;;25.54;40.23;94524.81;5217873;22;20016;-84
2023/07/29 08:18:44;;;;;;;;;;;;;;;25.40;40.41;94526.28;5218717;22;20032;-82
2023/07/29 08:20:57;;;;;;;;;;;;;;;25.45;40.60;94529.03;5171877;22;20290;-86
2023/07/29 08:23:02;;;;;;;;;;;;;;;25.59;39.95;94521.34;5231930;22;19961;-83
2023/07/29 08:25:04;;;;;;;;;;;;;;;25.49;40.17;94521.28;5229286;22;19919;-83
2023/07/29 08:27:06;;;;;;;;;;;;;;;25.57;39.81;94518.13;5193716;22;19915;-87
2023/07/29 08:29:08;;;;;;;;;;;;;;;25.75;39.76;94522.28;5196905;22;19926;-87
2023/07/29 08:31:10;;;;;;;;;;;;;;;25.61;39.54;94516.53;5166596;23;19942;-87
2023/07/29 08:33:12;;;;;;;;;;;;;;;25.70;40.01;94516.88;5192827;22;19942;-84
2023/07/29 08:35:14;;;;;;;;;;;;;;;25.57;40.39;94523.47;5222018;22;20250;-84
2023/07/29 08:37:15;;;;;;;;;;;;;;;25.59;39.44;94524.03;5220957;22;19938;-86
2023/07/29 08:39:17;;;;;;;;;;;;;;;25.85;39.20;94519.66;5195843;22;19915;-84
2023/07/29 08:41:21;;;;;;;;;;;;;;;26.13;38.72;94512.31;5201081;22;19987;-84
2023/07/29 08:43:25;;;;;;;;;;;;;;;26.29;38.64;94507.84;5200543;22;19934;-86
2023/07/29 08:45:26;;;;;;;;;;;;;;;26.20;38.23;94512.09;5228209;22;19939;-83
2023/07/29 08:47:28;;;;;;;;;;;;;;;26.05;38.50;94513.63;5224697;22;19942;-82
2023/07/29 08:49:30;;;;;;;;;;;;;;;26.06;37.86;94506.38;5194743;22;19969;-84
2023/07/29 08:51:32;;;;;;;;;;;;;;;26.07;37.23;94502.63;5191652;22;19919;-86
2023/07/29 08:53:34;;;;;;;;;;;;;;;26.21;37.30;94495.72;5191980;22;19927;-84
2023/07/29 08:55:36;;;;;;;;;;;;;;;26.43;35.92;94502.78;5220586;22;20291;-85
2023/07/29 08:57:38;;;;;;;;;;;;;;;26.55;35.65;94501.50;5219311;22;19968;-85
2023/07/29 08:59:39;;;;;;;;;;;;;;;26.58;35.26;94500.19;5219760;22;19919;-84
2023/07/29 09:01:41;;;;;;;;;;;;;;;26.58;34.15;94497.50;5191505;22;19945;-83
2023/07/29 09:03:43;;;;;;;;;;;;;;;26.42;34.13;94504.69;5167187;22;20334;-83
2023/07/29 09:05:45;;;;;;;;;;;;;;;26.58;34.36;94502.88;5219557;22;19919;-84
2023/07/29 09:07:47;;;;;;;;;;;;;;;26.82;33.69;94497.81;5221374;22;20018;-85
2023/07/29 09:09:50;;;;;;;;;;;;;;;27.06;33.52;94490.09;5219860;22;19922;-87
2023/07/29 09:11:52;;;;;;;;;;;;;;;26.66;34.68;94494.31;5194994;22;19925;-83
2023/07/29 09:13:54;;;;;;;;;;;;;;;26.52;35.11;94491.28;5194707;22;19919;-86
2023/07/29 09:15:56;;;;;;;;;;;;;;;26.79;34.88;94479.56;5219553;22;19915;-85
2023/07/29 09:17:58;;;;;;;;;;;;;;;27.01;34.28;94482.00;5191304;22;19919;-85
2023/07/29 09:20:03;;;;;;;;;;;;;;;27.12;34.54;94482.81;5192495;22;20415;-85
2023/07/29 09:22:05;;;;;;;;;;;;;;;27.09;34.18;94477.97;5191715;22;19937;-86
2023/07/29 09:24:07;;;;;;;;;;;;;;;27.00;34.09;94482.28;5165149;23;19919;-83
2023/07/29 09:26:09;;;;;;;;;;;;;;;27.06;34.33;94473.97;5217749;22;19942;-85
2023/07/29 09:28:15;;;;;;;;;;;;;;;27.17;34.30;94474.78;5164679;23;19942;-84
2023/07/29 09:30:17;;;;;;;;;;;;;;;27.08;34.46;94473.66;5217114;22;19926;-87
2023/07/29 09:32:20;;;;;;;;;;;;;;;27.22;33.40;94468.63;5189938;22;19998;-82
2023/07/29 09:34:21;;;;;;;;;;;;;;;27.22;33.08;94472.09;5164301;22;19923;-83
2023/07/29 09:36:23;;;;;;;;;;;;;;;27.57;33.02;94465.09;5218416;22;19976;-87
2023/07/29 09:38:28;;;;;;;;;;;;;;;27.70;32.66;94459.13;5191587;22;20227;-81
2023/07/29 09:40:39;;;;;;;;;;;;;;;27.55;32.13;94460.00;5227483;22;19938;-84
2023/07/29 09:42:47;;;;;;;;;;;;;;;27.46;32.50;94458.09;5201393;22;19963;-83
2023/07/29 09:44:49;;;;;;;;;;;;;;;27.45;32.45;94453.78;5191233;22;20308;-83
2023/07/29 09:46:51;;;;;;;;;;;;;;;27.32;32.81;94461.34;5190275;22;19986;-85
2023/07/29 09:48:53;;;;;;;;;;;;;;;27.25;33.19;94460.78;5190043;22;19919;-85
2023/07/29 09:50:55;;;;;;;;;;;;;;;27.57;32.96;94459.69;5217819;22;20071;-85
2023/07/29 09:53:00;;;;;;;;;;;;;;;27.80;32.09;94454.84;5217228;22;19992;-86
2023/07/29 09:55:02;;;;;;;;;;;;;;;27.80;31.69;94454.84;5189926;22;19950;-85
2023/07/29 09:57:04;;;;;;;;;;;;;;;27.75;31.65;94450.28;5190765;22;20021;-85
2023/07/29 09:59:05;;;;;;;;;;;;;;;27.89;31.31;94450.53;5164776;22;19919;-86
2023/07/29 10:01:07;;;;;;;;;;;;;;;27.98;30.79;94451.56;5216617;22;19914;-84
2023/07/29 10:03:08;;;;;;;;;;;;;;;28.04;30.13;94450.47;5189328;22;19970;-85
2023/07/29 10:05:10;;;;;;;;;;;;;;;28.21;30.13;94443.97;5164343;23;19954;-86
2023/07/29 10:07:13;;;;;;;;;;;;;;;28.49;30.32;94437.91;5220867;22;19915;-84
2023/07/29 10:09:15;;;;;;;;;;;;;;;28.65;30.65;94438.63;5218113;22;19981;-83
2023/07/29 10:11:20;;;;;;;;;;;;;;;28.66;30.22;94442.94;5189704;22;19998;-81
2023/07/29 10:13:21;;;;;;;;;;;;;;;28.82;30.11;94434.75;5218227;22;20001;-83
2023/07/29 10:15:23;;;;;;;;;;;;;;;28.70;29.60;94430.53;5216423;22;20476;-82
2023/07/29 10:17:24;;;;;;;;;;;;;;;28.74;29.67;94431.56;5188395;22;19919;-82
2023/07/29 10:19:26;;;;;;;;;;;;;;;28.71;29.90;94429.41;5163276;22;19952;-83
2023/07/29 10:21:28;;;;;;;;;;;;;;;28.89;29.63;94430.66;5188608;22;19938;-85
2023/07/29 10:23:38;;;;;;;;;;;;;;;28.98;29.20;94426.28;5190760;22;19976;-83
2023/07/29 10:25:43;;;;;;;;;;;;;;;28.92;28.90;94421.22;5217442;22;19926;-84
2023/07/29 10:28:04;;;;;;;;;;;;;;;28.91;28.54;94415.03;5189899;22;20288;-85
2023/07/29 10:30:06;;;;;;;;;;;;;;;28.54;29.54;94416.31;5191880;22;19919;-85
2023/07/29 10:32:08;;;;;;;;;;;;;;;28.44;29.41;94415.53;5193225;22;19915;-84
2023/07/29 10:34:11;;;;;;;;;;;;;;;28.44;29.85;94407.47;5196015;22;19915;-84
2023/07/29 10:36:13;;;;;;;;;;;;;;;28.38;29.50;94402.09;5225050;22;19980;-82
2023/07/29 10:38:15;;;;;;;;;;;;;;;28.47;29.04;94412.31;5204732;22;20115;-85